sensor_id;sensor_type;location;lat;lon;timestamp;temperature;humidity
75262;DHT22;63859;51.064;4.580;2023-05-07T00:02:06;15.70;99.90
75262;DHT22;63859;51.064;4.580;2023-05-07T00:04:32;15.70;99.90
75262;DHT22;63859;51.064;4.580;2023-05-07T00:07:02;15.70;99.90
75262;DHT22;63859;51.064;4.580;2023-05-07T00:09:28;15.70;99.90
75262;DHT22;63859;51.064;4.580;2023-05-07T00:11:54;15.80;99.90
75262;DHT22;63859;51.064;4.580;2023-05-07T00:14:19;15.70;99.90
75262;DHT22;63859;51.064;4.580;2023-05-07T00:16:45;15.70;99.90
75262;DHT22;63859;51.064;4.580;2023-05-07T00:19:11;15.70;99.90
75262;DHT22;63859;51.064;4.580;2023-05-07T00:21:37;15.70;99.90
75262;DHT22;63859;51.064;4.580;2023-05-07T00:24:02;15.80;99.90
75262;DHT22;63859;51.064;4.580;2023-05-07T00:26:28;15.70;99.90
75262;DHT22;63859;51.064;4.580;2023-05-07T00:28:54;15.70;99.90
75262;DHT22;63859;51.064;4.580;2023-05-07T00:31:20;15.70;99.90
75262;DHT22;63859;51.064;4.580;2023-05-07T00:33:45;15.70;99.90
75262;DHT22;63859;51.064;4.580;2023-05-07T00:36:12;15.60;99.90
75262;DHT22;63859;51.064;4.580;2023-05-07T00:38:37;15.70;99.90
75262;DHT22;63859;51.064;4.580;2023-05-07T00:41:03;15.70;99.90
75262;DHT22;63859;51.064;4.580;2023-05-07T00:43:28;15.70;99.90
75262;DHT22;63859;51.064;4.580;2023-05-07T00:45:55;15.70;99.90
75262;DHT22;63859;51.064;4.580;2023-05-07T00:48:21;15.70;99.90
75262;DHT22;63859;51.064;4.580;2023-05-07T00:50:47;15.70;99.90
75262;DHT22;63859;51.064;4.580;2023-05-07T00:53:14;15.70;99.90
75262;DHT22;63859;51.064;4.580;2023-05-07T00:55:39;15.70;99.90
75262;DHT22;63859;51.064;4.580;2023-05-07T00:58:06;15.70;99.90
75262;DHT22;63859;51.064;4.580;2023-05-07T01:00:32;15.70;99.90
75262;DHT22;63859;51.064;4.580;2023-05-07T01:02:58;15.70;99.90
75262;DHT22;63859;51.064;4.580;2023-05-07T01:05:24;15.70;99.90
75262;DHT22;63859;51.064;4.580;2023-05-07T01:07:53;15.70;99.90
75262;DHT22;63859;51.064;4.580;2023-05-07T01:10:20;15.70;99.90
75262;DHT22;63859;51.064;4.580;2023-05-07T01:12:46;15.70;99.90
75262;DHT22;63859;51.064;4.580;2023-05-07T01:15:14;15.60;99.90
75262;DHT22;63859;51.064;4.580;2023-05-07T01:17:41;15.60;99.90
75262;DHT22;63859;51.064;4.580;2023-05-07T01:20:09;15.60;99.90
75262;DHT22;63859;51.064;4.580;2023-05-07T01:22:38;15.60;99.90
75262;DHT22;63859;51.064;4.580;2023-05-07T01:25:05;15.60;99.90
75262;DHT22;63859;51.064;4.580;2023-05-07T01:27:31;15.60;99.90
75262;DHT22;63859;51.064;4.580;2023-05-07T01:29:58;15.60;99.90
75262;DHT22;63859;51.064;4.580;2023-05-07T01:32:56;15.60;99.90
75262;DHT22;63859;51.064;4.580;2023-05-07T01:35:29;15.60;99.90
75262;DHT22;63859;51.064;4.580;2023-05-07T01:37:56;15.60;99.90
75262;DHT22;63859;51.064;4.580;2023-05-07T01:40:24;15.50;99.90
75262;DHT22;63859;51.064;4.580;2023-05-07T01:42:50;15.50;99.90
75262;DHT22;63859;51.064;4.580;2023-05-07T01:45:16;15.50;99.90
75262;DHT22;63859;51.064;4.580;2023-05-07T01:47:42;15.50;99.90
75262;DHT22;63859;51.064;4.580;2023-05-07T01:50:09;15.50;99.90
75262;DHT22;63859;51.064;4.580;2023-05-07T01:52:37;15.50;99.90
75262;DHT22;63859;51.064;4.580;2023-05-07T01:55:03;15.50;99.90
75262;DHT22;63859;51.064;4.580;2023-05-07T01:57:30;15.50;99.90
75262;DHT22;63859;51.064;4.580;2023-05-07T01:59:55;15.50;99.90
75262;DHT22;63859;51.064;4.580;2023-05-07T02:02:21;15.50;99.90
75262;DHT22;63859;51.064;4.580;2023-05-07T02:04:47;15.50;99.90
75262;DHT22;63859;51.064;4.580;2023-05-07T02:07:12;15.40;99.90
75262;DHT22;63859;51.064;4.580;2023-05-07T02:09:38;15.40;99.90
75262;DHT22;63859;51.064;4.580;2023-05-07T02:12:04;15.40;99.90
75262;DHT22;63859;51.064;4.580;2023-05-07T02:14:30;15.40;99.90
75262;DHT22;63859;51.064;4.580;2023-05-07T02:16:55;15.40;99.90
75262;DHT22;63859;51.064;4.580;2023-05-07T02:19:21;15.40;99.90
75262;DHT22;63859;51.064;4.580;2023-05-07T02:21:47;15.40;99.90
75262;DHT22;63859;51.064;4.580;2023-05-07T02:24:13;15.40;99.90
75262;DHT22;63859;51.064;4.580;2023-05-07T02:26:40;15.40;99.90
75262;DHT22;63859;51.064;4.580;2023-05-07T02:29:06;15.40;99.90
75262;DHT22;63859;51.064;4.580;2023-05-07T02:31:32;15.40;99.90
75262;DHT22;63859;51.064;4.580;2023-05-07T02:33:59;15.40;99.90
75262;DHT22;63859;51.064;4.580;2023-05-07T02:36:25;15.40;99.90
75262;DHT22;63859;51.064;4.580;2023-05-07T02:38:52;15.30;99.90
75262;DHT22;63859;51.064;4.580;2023-05-07T02:41:17;15.40;99.90
75262;DHT22;63859;51.064;4.580;2023-05-07T02:43:43;15.40;99.90
75262;DHT22;63859;51.064;4.580;2023-05-07T02:46:09;15.40;99.90
75262;DHT22;63859;51.064;4.580;2023-05-07T02:48:35;15.40;99.90
75262;DHT22;63859;51.064;4.580;2023-05-07T02:51:01;15.40;99.90
75262;DHT22;63859;51.064;4.580;2023-05-07T02:53:27;15.40;99.90
75262;DHT22;63859;51.064;4.580;2023-05-07T02:55:56;15.40;99.90
75262;DHT22;63859;51.064;4.580;2023-05-07T02:58:22;15.40;99.90
75262;DHT22;63859;51.064;4.580;2023-05-07T03:00:48;15.40;99.90
75262;DHT22;63859;51.064;4.580;2023-05-07T03:03:14;15.40;99.90
75262;DHT22;63859;51.064;4.580;2023-05-07T03:05:40;15.40;99.90
75262;DHT22;63859;51.064;4.580;2023-05-07T03:08:06;15.40;99.90
75262;DHT22;63859;51.064;4.580;2023-05-07T03:10:32;15.40;99.90
75262;DHT22;63859;51.064;4.580;2023-05-07T03:12:58;15.40;99.90
75262;DHT22;63859;51.064;4.580;2023-05-07T03:15:23;15.40;99.90
75262;DHT22;63859;51.064;4.580;2023-05-07T03:17:49;15.40;99.90
75262;DHT22;63859;51.064;4.580;2023-05-07T03:20:15;15.40;99.90
75262;DHT22;63859;51.064;4.580;2023-05-07T03:22:40;15.40;99.90
75262;DHT22;63859;51.064;4.580;2023-05-07T03:25:06;15.40;99.90
75262;DHT22;63859;51.064;4.580;2023-05-07T03:27:32;15.40;99.90
75262;DHT22;63859;51.064;4.580;2023-05-07T03:29:58;15.40;99.90
75262;DHT22;63859;51.064;4.580;2023-05-07T03:32:24;15.40;99.90
75262;DHT22;63859;51.064;4.580;2023-05-07T03:34:50;15.40;99.90
75262;DHT22;63859;51.064;4.580;2023-05-07T03:37:15;15.40;99.90
75262;DHT22;63859;51.064;4.580;2023-05-07T03:39:41;15.40;99.90
75262;DHT22;63859;51.064;4.580;2023-05-07T03:42:07;15.40;99.90
75262;DHT22;63859;51.064;4.580;2023-05-07T03:44:32;15.50;99.90
75262;DHT22;63859;51.064;4.580;2023-05-07T03:46:58;15.50;99.90
75262;DHT22;63859;51.064;4.580;2023-05-07T03:49:23;15.40;99.90
75262;DHT22;63859;51.064;4.580;2023-05-07T03:51:49;15.40;99.90
75262;DHT22;63859;51.064;4.580;2023-05-07T03:54:15;15.40;99.90
75262;DHT22;63859;51.064;4.580;2023-05-07T03:56:41;15.40;99.90
75262;DHT22;63859;51.064;4.580;2023-05-07T03:59:06;15.40;99.90
75262;DHT22;63859;51.064;4.580;2023-05-07T04:01:32;15.50;99.90
75262;DHT22;63859;51.064;4.580;2023-05-07T04:03:57;15.40;99.90
75262;DHT22;63859;51.064;4.580;2023-05-07T04:06:23;15.40;99.90
75262;DHT22;63859;51.064;4.580;2023-05-07T04:08:49;15.40;99.90
75262;DHT22;63859;51.064;4.580;2023-05-07T04:11:15;15.40;99.90
75262;DHT22;63859;51.064;4.580;2023-05-07T04:13:41;15.40;99.90
75262;DHT22;63859;51.064;4.580;2023-05-07T04:16:06;15.40;99.90
75262;DHT22;63859;51.064;4.580;2023-05-07T04:18:32;15.40;99.90
75262;DHT22;63859;51.064;4.580;2023-05-07T04:20:58;15.40;99.90
75262;DHT22;63859;51.064;4.580;2023-05-07T04:23:23;15.30;99.90
75262;DHT22;63859;51.064;4.580;2023-05-07T04:25:50;15.40;99.90
75262;DHT22;63859;51.064;4.580;2023-05-07T04:28:16;15.30;99.90
75262;DHT22;63859;51.064;4.580;2023-05-07T04:30:41;15.30;99.90
75262;DHT22;63859;51.064;4.580;2023-05-07T04:33:07;15.30;99.90
75262;DHT22;63859;51.064;4.580;2023-05-07T04:35:33;15.30;99.90
75262;DHT22;63859;51.064;4.580;2023-05-07T04:38:00;15.30;99.90
75262;DHT22;63859;51.064;4.580;2023-05-07T04:40:25;15.30;99.90
75262;DHT22;63859;51.064;4.580;2023-05-07T04:42:51;15.30;99.90
75262;DHT22;63859;51.064;4.580;2023-05-07T04:45:18;15.30;99.90
75262;DHT22;63859;51.064;4.580;2023-05-07T04:47:44;15.30;99.90
75262;DHT22;63859;51.064;4.580;2023-05-07T04:50:10;15.30;99.90
75262;DHT22;63859;51.064;4.580;2023-05-07T04:52:36;15.30;99.90
75262;DHT22;63859;51.064;4.580;2023-05-07T04:55:02;15.30;99.90
75262;DHT22;63859;51.064;4.580;2023-05-07T04:57:27;15.40;99.90
75262;DHT22;63859;51.064;4.580;2023-05-07T04:59:54;15.40;99.90
75262;DHT22;63859;51.064;4.580;2023-05-07T05:02:20;15.40;99.90
75262;DHT22;63859;51.064;4.580;2023-05-07T05:04:45;15.40;99.90
75262;DHT22;63859;51.064;4.580;2023-05-07T05:07:11;15.40;99.90
75262;DHT22;63859;51.064;4.580;2023-05-07T05:09:36;15.40;99.90
75262;DHT22;63859;51.064;4.580;2023-05-07T05:12:02;15.40;99.90
75262;DHT22;63859;51.064;4.580;2023-05-07T05:14:28;15.40;99.90
75262;DHT22;63859;51.064;4.580;2023-05-07T05:16:54;15.40;99.90
75262;DHT22;63859;51.064;4.580;2023-05-07T05:19:20;15.40;99.90
75262;DHT22;63859;51.064;4.580;2023-05-07T05:21:46;15.40;99.90
75262;DHT22;63859;51.064;4.580;2023-05-07T05:24:11;15.50;99.90
75262;DHT22;63859;51.064;4.580;2023-05-07T05:26:37;15.50;99.90
75262;DHT22;63859;51.064;4.580;2023-05-07T05:29:03;15.50;99.90
75262;DHT22;63859;51.064;4.580;2023-05-07T05:31:29;15.50;99.90
75262;DHT22;63859;51.064;4.580;2023-05-07T05:33:54;15.60;99.90
75262;DHT22;63859;51.064;4.580;2023-05-07T05:36:20;15.60;99.90
75262;DHT22;63859;51.064;4.580;2023-05-07T05:38:45;15.60;99.90
75262;DHT22;63859;51.064;4.580;2023-05-07T05:41:11;15.60;99.90
75262;DHT22;63859;51.064;4.580;2023-05-07T05:43:37;15.60;99.90
75262;DHT22;63859;51.064;4.580;2023-05-07T05:46:02;15.60;99.90
75262;DHT22;63859;51.064;4.580;2023-05-07T05:48:30;15.70;99.90
75262;DHT22;63859;51.064;4.580;2023-05-07T05:50:55;15.70;99.90
75262;DHT22;63859;51.064;4.580;2023-05-07T05:53:21;15.70;99.90
75262;DHT22;63859;51.064;4.580;2023-05-07T05:55:47;15.80;99.90
75262;DHT22;63859;51.064;4.580;2023-05-07T05:58:12;15.80;99.90
75262;DHT22;63859;51.064;4.580;2023-05-07T06:00:38;15.80;99.90
75262;DHT22;63859;51.064;4.580;2023-05-07T06:03:04;15.80;99.90
75262;DHT22;63859;51.064;4.580;2023-05-07T06:05:29;15.90;99.90
75262;DHT22;63859;51.064;4.580;2023-05-07T06:07:56;15.90;99.90
75262;DHT22;63859;51.064;4.580;2023-05-07T06:10:21;15.90;99.90
75262;DHT22;63859;51.064;4.580;2023-05-07T06:12:47;16.00;99.90
75262;DHT22;63859;51.064;4.580;2023-05-07T06:15:12;16.00;99.90
75262;DHT22;63859;51.064;4.580;2023-05-07T06:17:38;16.00;99.90
75262;DHT22;63859;51.064;4.580;2023-05-07T06:20:04;16.00;99.90
75262;DHT22;63859;51.064;4.580;2023-05-07T06:22:30;16.00;99.90
75262;DHT22;63859;51.064;4.580;2023-05-07T06:24:56;16.10;99.90
75262;DHT22;63859;51.064;4.580;2023-05-07T06:27:21;16.10;99.90
75262;DHT22;63859;51.064;4.580;2023-05-07T06:29:48;16.20;99.90
75262;DHT22;63859;51.064;4.580;2023-05-07T06:32:14;16.20;99.90
75262;DHT22;63859;51.064;4.580;2023-05-07T06:34:40;16.20;99.90
75262;DHT22;63859;51.064;4.580;2023-05-07T06:37:06;16.20;99.90
75262;DHT22;63859;51.064;4.580;2023-05-07T06:39:32;16.30;99.90
75262;DHT22;63859;51.064;4.580;2023-05-07T06:41:59;16.30;99.90
75262;DHT22;63859;51.064;4.580;2023-05-07T06:44:25;16.30;99.90
75262;DHT22;63859;51.064;4.580;2023-05-07T06:46:51;16.30;99.90
75262;DHT22;63859;51.064;4.580;2023-05-07T06:49:16;16.20;99.90
75262;DHT22;63859;51.064;4.580;2023-05-07T06:51:42;16.20;99.90
75262;DHT22;63859;51.064;4.580;2023-05-07T06:54:08;16.10;99.90
75262;DHT22;63859;51.064;4.580;2023-05-07T06:56:34;16.10;99.90
75262;DHT22;63859;51.064;4.580;2023-05-07T06:59:00;16.10;99.90
75262;DHT22;63859;51.064;4.580;2023-05-07T07:01:27;16.10;99.90
75262;DHT22;63859;51.064;4.580;2023-05-07T07:03:53;16.10;99.90
75262;DHT22;63859;51.064;4.580;2023-05-07T07:06:19;16.10;99.90
75262;DHT22;63859;51.064;4.580;2023-05-07T07:08:44;16.10;99.90
75262;DHT22;63859;51.064;4.580;2023-05-07T07:11:11;16.10;99.90
75262;DHT22;63859;51.064;4.580;2023-05-07T07:13:36;16.10;99.90
75262;DHT22;63859;51.064;4.580;2023-05-07T07:16:02;16.10;99.90
75262;DHT22;63859;51.064;4.580;2023-05-07T07:18:28;16.20;99.90
75262;DHT22;63859;51.064;4.580;2023-05-07T07:20:54;16.20;99.90
75262;DHT22;63859;51.064;4.580;2023-05-07T07:23:20;16.30;99.90
75262;DHT22;63859;51.064;4.580;2023-05-07T07:25:46;16.30;99.90
75262;DHT22;63859;51.064;4.580;2023-05-07T07:28:11;16.40;99.90
75262;DHT22;63859;51.064;4.580;2023-05-07T07:30:38;16.40;99.90
75262;DHT22;63859;51.064;4.580;2023-05-07T07:33:04;16.40;99.90
75262;DHT22;63859;51.064;4.580;2023-05-07T07:35:33;16.40;99.90
75262;DHT22;63859;51.064;4.580;2023-05-07T07:37:59;16.50;99.90
75262;DHT22;63859;51.064;4.580;2023-05-07T07:40:25;16.50;99.90
75262;DHT22;63859;51.064;4.580;2023-05-07T07:42:51;16.50;99.90
75262;DHT22;63859;51.064;4.580;2023-05-07T07:45:17;16.50;99.90
75262;DHT22;63859;51.064;4.580;2023-05-07T07:47:43;16.60;99.90
75262;DHT22;63859;51.064;4.580;2023-05-07T07:50:09;16.50;99.90
75262;DHT22;63859;51.064;4.580;2023-05-07T07:52:35;16.60;99.90
75262;DHT22;63859;51.064;4.580;2023-05-07T07:55:00;16.60;99.90
75262;DHT22;63859;51.064;4.580;2023-05-07T07:57:26;16.60;99.90
75262;DHT22;63859;51.064;4.580;2023-05-07T07:59:52;16.60;99.90
75262;DHT22;63859;51.064;4.580;2023-05-07T08:02:18;16.50;99.90
75262;DHT22;63859;51.064;4.580;2023-05-07T08:04:43;16.50;99.90
75262;DHT22;63859;51.064;4.580;2023-05-07T08:07:10;16.40;99.90
75262;DHT22;63859;51.064;4.580;2023-05-07T08:09:37;16.40;99.90
75262;DHT22;63859;51.064;4.580;2023-05-07T08:12:04;16.40;99.90
75262;DHT22;63859;51.064;4.580;2023-05-07T08:14:30;16.40;99.90
75262;DHT22;63859;51.064;4.580;2023-05-07T08:16:55;16.40;99.90
75262;DHT22;63859;51.064;4.580;2023-05-07T08:19:21;16.30;99.90
75262;DHT22;63859;51.064;4.580;2023-05-07T08:21:47;16.30;99.90
75262;DHT22;63859;51.064;4.580;2023-05-07T08:24:14;16.30;99.90
75262;DHT22;63859;51.064;4.580;2023-05-07T08:26:40;16.30;99.90
75262;DHT22;63859;51.064;4.580;2023-05-07T08:29:06;16.30;99.90
75262;DHT22;63859;51.064;4.580;2023-05-07T08:31:31;16.30;99.90
75262;DHT22;63859;51.064;4.580;2023-05-07T08:33:58;16.30;99.90
75262;DHT22;63859;51.064;4.580;2023-05-07T08:36:23;16.20;99.90
75262;DHT22;63859;51.064;4.580;2023-05-07T08:38:49;16.20;99.90
75262;DHT22;63859;51.064;4.580;2023-05-07T08:41:15;16.20;99.90
75262;DHT22;63859;51.064;4.580;2023-05-07T08:43:41;16.20;99.90
75262;DHT22;63859;51.064;4.580;2023-05-07T08:46:09;16.10;99.90
75262;DHT22;63859;51.064;4.580;2023-05-07T08:48:35;16.20;99.90
75262;DHT22;63859;51.064;4.580;2023-05-07T08:51:01;16.10;99.90
75262;DHT22;63859;51.064;4.580;2023-05-07T08:53:27;16.10;99.90
75262;DHT22;63859;51.064;4.580;2023-05-07T08:55:53;16.10;99.90
75262;DHT22;63859;51.064;4.580;2023-05-07T08:58:19;16.00;99.90
75262;DHT22;63859;51.064;4.580;2023-05-07T09:00:46;16.00;99.90
75262;DHT22;63859;51.064;4.580;2023-05-07T09:03:12;16.00;99.90
75262;DHT22;63859;51.064;4.580;2023-05-07T09:05:38;16.10;99.90
75262;DHT22;63859;51.064;4.580;2023-05-07T09:08:08;16.10;99.90
75262;DHT22;63859;51.064;4.580;2023-05-07T09:10:34;16.10;99.90
75262;DHT22;63859;51.064;4.580;2023-05-07T09:12:59;16.10;99.90
75262;DHT22;63859;51.064;4.580;2023-05-07T09:15:26;16.20;99.90
75262;DHT22;63859;51.064;4.580;2023-05-07T09:17:53;16.20;99.90
75262;DHT22;63859;51.064;4.580;2023-05-07T09:20:19;16.20;99.90
75262;DHT22;63859;51.064;4.580;2023-05-07T09:22:45;16.20;99.90
75262;DHT22;63859;51.064;4.580;2023-05-07T09:25:10;16.20;99.90
75262;DHT22;63859;51.064;4.580;2023-05-07T09:27:37;16.20;99.90
75262;DHT22;63859;51.064;4.580;2023-05-07T09:30:09;16.30;99.90
75262;DHT22;63859;51.064;4.580;2023-05-07T09:32:35;16.30;99.90
75262;DHT22;63859;51.064;4.580;2023-05-07T09:35:03;16.30;99.90
75262;DHT22;63859;51.064;4.580;2023-05-07T09:37:31;16.30;99.90
75262;DHT22;63859;51.064;4.580;2023-05-07T09:39:58;16.20;99.90
75262;DHT22;63859;51.064;4.580;2023-05-07T09:42:27;16.20;99.90
75262;DHT22;63859;51.064;4.580;2023-05-07T09:44:52;16.30;99.90
75262;DHT22;63859;51.064;4.580;2023-05-07T09:47:19;16.30;99.90
75262;DHT22;63859;51.064;4.580;2023-05-07T09:49:47;16.30;99.90
75262;DHT22;63859;51.064;4.580;2023-05-07T09:52:13;16.30;99.90
75262;DHT22;63859;51.064;4.580;2023-05-07T09:54:40;16.40;99.90
75262;DHT22;63859;51.064;4.580;2023-05-07T09:57:10;16.40;99.90
75262;DHT22;63859;51.064;4.580;2023-05-07T09:59:37;16.40;99.90
75262;DHT22;63859;51.064;4.580;2023-05-07T10:02:04;16.40;99.90
75262;DHT22;63859;51.064;4.580;2023-05-07T10:04:31;16.40;99.90
75262;DHT22;63859;51.064;4.580;2023-05-07T10:06:57;16.40;99.90
75262;DHT22;63859;51.064;4.580;2023-05-07T10:09:25;16.40;99.90
75262;DHT22;63859;51.064;4.580;2023-05-07T10:11:52;16.50;99.90
75262;DHT22;63859;51.064;4.580;2023-05-07T10:14:20;16.50;99.90
75262;DHT22;63859;51.064;4.580;2023-05-07T10:16:47;16.40;99.90
75262;DHT22;63859;51.064;4.580;2023-05-07T10:19:14;16.50;99.90
75262;DHT22;63859;51.064;4.580;2023-05-07T10:21:44;16.40;99.90
75262;DHT22;63859;51.064;4.580;2023-05-07T10:24:20;16.40;99.90
75262;DHT22;63859;51.064;4.580;2023-05-07T10:26:49;16.50;99.90
75262;DHT22;63859;51.064;4.580;2023-05-07T10:35:00;16.50;99.90
75262;DHT22;63859;51.064;4.580;2023-05-07T10:37:27;16.50;99.90
75262;DHT22;63859;51.064;4.580;2023-05-07T10:39:53;16.40;99.90
75262;DHT22;63859;51.064;4.580;2023-05-07T10:42:18;16.50;99.90
75262;DHT22;63859;51.064;4.580;2023-05-07T10:44:44;16.50;99.90
75262;DHT22;63859;51.064;4.580;2023-05-07T10:47:12;16.60;99.90
75262;DHT22;63859;51.064;4.580;2023-05-07T10:52:17;16.70;99.90
75262;DHT22;63859;51.064;4.580;2023-05-07T10:54:44;16.70;99.90
75262;DHT22;63859;51.064;4.580;2023-05-07T10:57:32;16.80;99.90
75262;DHT22;63859;51.064;4.580;2023-05-07T10:59:58;16.70;99.90
75262;DHT22;63859;51.064;4.580;2023-05-07T11:05:26;16.70;99.90
75262;DHT22;63859;51.064;4.580;2023-05-07T11:07:55;16.80;99.90
75262;DHT22;63859;51.064;4.580;2023-05-07T11:10:21;16.80;99.90
75262;DHT22;63859;51.064;4.580;2023-05-07T11:12:51;16.70;99.90
75262;DHT22;63859;51.064;4.580;2023-05-07T11:15:38;16.80;99.90
75262;DHT22;63859;51.064;4.580;2023-05-07T11:18:05;16.80;99.90
75262;DHT22;63859;51.064;4.580;2023-05-07T11:20:45;16.80;99.90
75262;DHT22;63859;51.064;4.580;2023-05-07T11:26:08;16.80;99.90
75262;DHT22;63859;51.064;4.580;2023-05-07T11:28:41;16.90;99.90
75262;DHT22;63859;51.064;4.580;2023-05-07T11:31:07;16.90;99.90
75262;DHT22;63859;51.064;4.580;2023-05-07T11:33:33;17.00;99.90
75262;DHT22;63859;51.064;4.580;2023-05-07T11:36:03;17.00;99.90
75262;DHT22;63859;51.064;4.580;2023-05-07T11:38:30;17.10;99.90
75262;DHT22;63859;51.064;4.580;2023-05-07T11:40:58;17.00;99.90
75262;DHT22;63859;51.064;4.580;2023-05-07T11:43:26;17.00;99.90
75262;DHT22;63859;51.064;4.580;2023-05-07T11:45:52;17.10;99.90
75262;DHT22;63859;51.064;4.580;2023-05-07T11:48:17;17.00;99.90
75262;DHT22;63859;51.064;4.580;2023-05-07T11:50:53;17.00;99.90
75262;DHT22;63859;51.064;4.580;2023-05-07T11:53:20;17.00;99.90
75262;DHT22;63859;51.064;4.580;2023-05-07T11:55:52;17.10;99.90
75262;DHT22;63859;51.064;4.580;2023-05-07T11:58:21;17.20;99.90
75262;DHT22;63859;51.064;4.580;2023-05-07T12:00:52;17.20;99.90
75262;DHT22;63859;51.064;4.580;2023-05-07T12:03:18;17.20;99.90
75262;DHT22;63859;51.064;4.580;2023-05-07T12:05:48;17.20;99.90
75262;DHT22;63859;51.064;4.580;2023-05-07T12:08:17;17.20;99.90
75262;DHT22;63859;51.064;4.580;2023-05-07T12:10:44;17.30;99.90
75262;DHT22;63859;51.064;4.580;2023-05-07T12:13:21;17.30;99.90
75262;DHT22;63859;51.064;4.580;2023-05-07T12:15:51;17.30;99.90
75262;DHT22;63859;51.064;4.580;2023-05-07T12:18:16;17.30;99.90
75262;DHT22;63859;51.064;4.580;2023-05-07T12:20:42;17.30;99.90
75262;DHT22;63859;51.064;4.580;2023-05-07T12:23:08;17.40;99.90
75262;DHT22;63859;51.064;4.580;2023-05-07T12:25:42;17.50;99.90
75262;DHT22;63859;51.064;4.580;2023-05-07T12:28:16;17.50;99.90
75262;DHT22;63859;51.064;4.580;2023-05-07T12:30:50;17.40;99.90
75262;DHT22;63859;51.064;4.580;2023-05-07T12:33:17;17.50;99.90
75262;DHT22;63859;51.064;4.580;2023-05-07T12:35:43;17.50;99.90
75262;DHT22;63859;51.064;4.580;2023-05-07T12:38:11;17.50;99.90
75262;DHT22;63859;51.064;4.580;2023-05-07T12:40:39;17.50;99.90
75262;DHT22;63859;51.064;4.580;2023-05-07T12:43:05;17.50;99.90
75262;DHT22;63859;51.064;4.580;2023-05-07T12:45:30;17.50;99.90
75262;DHT22;63859;51.064;4.580;2023-05-07T12:47:56;17.60;99.90
75262;DHT22;63859;51.064;4.580;2023-05-07T12:50:30;17.70;99.90
75262;DHT22;63859;51.064;4.580;2023-05-07T12:52:55;17.80;99.90
75262;DHT22;63859;51.064;4.580;2023-05-07T12:55:21;17.90;99.90
75262;DHT22;63859;51.064;4.580;2023-05-07T12:57:50;17.90;99.90
75262;DHT22;63859;51.064;4.580;2023-05-07T13:00:17;18.00;99.90
75262;DHT22;63859;51.064;4.580;2023-05-07T13:02:44;18.00;99.90
75262;DHT22;63859;51.064;4.580;2023-05-07T13:05:10;18.10;99.90
75262;DHT22;63859;51.064;4.580;2023-05-07T13:07:36;18.10;99.90
75262;DHT22;63859;51.064;4.580;2023-05-07T13:10:03;18.20;99.90
75262;DHT22;63859;51.064;4.580;2023-05-07T13:12:29;18.30;99.90
75262;DHT22;63859;51.064;4.580;2023-05-07T13:14:55;18.30;99.90
75262;DHT22;63859;51.064;4.580;2023-05-07T13:17:21;18.40;99.90
75262;DHT22;63859;51.064;4.580;2023-05-07T13:19:46;18.40;99.90
75262;DHT22;63859;51.064;4.580;2023-05-07T13:22:12;18.40;99.90
75262;DHT22;63859;51.064;4.580;2023-05-07T13:24:37;18.40;99.90
75262;DHT22;63859;51.064;4.580;2023-05-07T13:27:03;18.50;99.90
75262;DHT22;63859;51.064;4.580;2023-05-07T13:29:29;18.50;99.90
75262;DHT22;63859;51.064;4.580;2023-05-07T13:31:59;18.60;99.90
75262;DHT22;63859;51.064;4.580;2023-05-07T13:34:25;18.50;99.90
75262;DHT22;63859;51.064;4.580;2023-05-07T13:36:50;18.50;99.90
75262;DHT22;63859;51.064;4.580;2023-05-07T13:39:16;18.50;99.90
75262;DHT22;63859;51.064;4.580;2023-05-07T13:41:42;18.50;99.90
75262;DHT22;63859;51.064;4.580;2023-05-07T13:44:07;18.60;99.90
75262;DHT22;63859;51.064;4.580;2023-05-07T13:46:33;18.60;99.90
75262;DHT22;63859;51.064;4.580;2023-05-07T13:48:59;18.60;99.90
75262;DHT22;63859;51.064;4.580;2023-05-07T13:51:25;18.50;99.90
75262;DHT22;63859;51.064;4.580;2023-05-07T13:53:51;18.60;99.90
75262;DHT22;63859;51.064;4.580;2023-05-07T13:56:17;18.60;99.90
75262;DHT22;63859;51.064;4.580;2023-05-07T13:58:43;18.60;99.90
75262;DHT22;63859;51.064;4.580;2023-05-07T14:01:09;18.70;99.90
75262;DHT22;63859;51.064;4.580;2023-05-07T14:03:34;18.60;99.90
75262;DHT22;63859;51.064;4.580;2023-05-07T14:06:03;18.60;99.90
75262;DHT22;63859;51.064;4.580;2023-05-07T14:08:29;18.60;99.90
75262;DHT22;63859;51.064;4.580;2023-05-07T14:10:55;18.70;99.90
75262;DHT22;63859;51.064;4.580;2023-05-07T14:13:20;18.70;99.90
75262;DHT22;63859;51.064;4.580;2023-05-07T14:15:46;18.80;99.90
75262;DHT22;63859;51.064;4.580;2023-05-07T14:18:13;18.80;99.90
75262;DHT22;63859;51.064;4.580;2023-05-07T14:20:39;18.70;99.90
75262;DHT22;63859;51.064;4.580;2023-05-07T14:23:05;18.80;99.90
75262;DHT22;63859;51.064;4.580;2023-05-07T14:25:31;18.70;99.90
75262;DHT22;63859;51.064;4.580;2023-05-07T14:27:56;18.70;99.90
75262;DHT22;63859;51.064;4.580;2023-05-07T14:30:22;18.70;99.90
75262;DHT22;63859;51.064;4.580;2023-05-07T14:32:50;18.80;99.90
75262;DHT22;63859;51.064;4.580;2023-05-07T14:35:16;18.80;99.90
75262;DHT22;63859;51.064;4.580;2023-05-07T14:37:43;18.80;99.90
75262;DHT22;63859;51.064;4.580;2023-05-07T14:40:09;18.70;99.90
75262;DHT22;63859;51.064;4.580;2023-05-07T14:42:35;18.80;99.90
75262;DHT22;63859;51.064;4.580;2023-05-07T14:45:01;18.80;99.90
75262;DHT22;63859;51.064;4.580;2023-05-07T14:47:27;18.90;99.90
75262;DHT22;63859;51.064;4.580;2023-05-07T14:49:53;18.90;99.90
75262;DHT22;63859;51.064;4.580;2023-05-07T14:52:20;18.90;99.90
75262;DHT22;63859;51.064;4.580;2023-05-07T14:54:45;18.90;99.90
75262;DHT22;63859;51.064;4.580;2023-05-07T14:57:13;19.00;99.90
75262;DHT22;63859;51.064;4.580;2023-05-07T14:59:40;19.00;99.90
75262;DHT22;63859;51.064;4.580;2023-05-07T15:02:06;19.00;99.90
75262;DHT22;63859;51.064;4.580;2023-05-07T15:04:33;19.10;99.90
75262;DHT22;63859;51.064;4.580;2023-05-07T15:06:59;19.10;99.90
75262;DHT22;63859;51.064;4.580;2023-05-07T15:09:25;19.20;99.90
75262;DHT22;63859;51.064;4.580;2023-05-07T15:11:51;19.10;99.90
75262;DHT22;63859;51.064;4.580;2023-05-07T15:14:17;19.10;99.90
75262;DHT22;63859;51.064;4.580;2023-05-07T15:16:42;19.10;99.90
75262;DHT22;63859;51.064;4.580;2023-05-07T15:19:08;19.10;99.90
75262;DHT22;63859;51.064;4.580;2023-05-07T15:21:34;19.10;99.90
75262;DHT22;63859;51.064;4.580;2023-05-07T15:24:01;19.10;99.90
75262;DHT22;63859;51.064;4.580;2023-05-07T15:26:27;19.10;99.90
75262;DHT22;63859;51.064;4.580;2023-05-07T15:28:53;19.20;99.90
75262;DHT22;63859;51.064;4.580;2023-05-07T15:31:21;19.20;99.90
75262;DHT22;63859;51.064;4.580;2023-05-07T15:33:46;19.20;99.90
75262;DHT22;63859;51.064;4.580;2023-05-07T15:36:12;19.20;99.90
75262;DHT22;63859;51.064;4.580;2023-05-07T15:38:38;19.20;99.90
75262;DHT22;63859;51.064;4.580;2023-05-07T15:41:04;19.20;99.90